Wabash, IN (46992)

2:33 PM EDT on August 04, 2015 (GMT -0400)
APRSWXNET | | Change Station
CLOSE
Current Station
Personal Weather Station
Location: Wabash, IN
Elevation: 777 ft
Nearby Weather Stations

Elev 777 ft 40.78 °N, 85.84 °W | Updated 1 hour ago

Partly Cloudy
Partly Cloudy
73 °F
Feels Like 77 °F
N
Wind Variable Wind from North
Gusts 0.0 mph

Today
High -- | Low -- °F
--% Chance of Precip.
Yesterday
High -- | Low -- °F
Precip. -- in
6:42 AM 8:55 PM
Waning Gibbous, 75% visible
Pressure 29.98 in
Visibility 10.0 miles
Clouds Few 5000 ft
Scattered Clouds 21000 ft
Heat Index 77 °F
Dew Point 56 °F
Humidity 55%
Rainfall in
Snow Depth Not available.
UV 9 out of 12
Pollen 7.70 out of 12
Air Quality Not available.
Flu Activity Not available.
METAR KGUS 041758Z AUTO 26010KT 10SM FEW050 SCT210 26/15 A2998 RMK AO2 SLP151 T02580149 10260 20167 57003

More Conditions Fewer Conditions

Pressure 29.98 in
Visibility 10.0 miles
Clouds Few 5000 ft
Scattered Clouds 21000 ft
Heat Index 77 °F
Dew Point 56 °F
Humidity 55%
Rainfall in
Snow Depth Not available.
UV 9 out of 12
Pollen 7.70 out of 12
Air Quality Not available.
Flu Activity Not available.
METAR KGUS 041758Z AUTO 26010KT 10SM FEW050 SCT210 26/15 A2998 RMK AO2 SLP151 T02580149 10260 20167 57003

More Conditions Fewer Conditions

10-Day Weather Forecast

×

Almanac

Astronomy

Aug. 04, 2015 Rise Set
Actual Time
Civil Twilight
Nautical Twilight
Astronomical Twilight
Moon
Length of Visible Light
Length of Day
Tomorrow will be .
, % of the Moon is Illuminated

Today's Extremes

State Highs State Lows

Community

WunderPhotos

Upload Photos

1,843,937 photos uploaded!

WunderBlogs® & News

Nearby

Air Quality

  Air Quality AQ Index Pollutant
Not available.

Snow Depth

Station Depth Elevation

Earthquake Activity

City Distance Mag. Time & Date
Minimum magnitude displayed is 2.5.

Coastal Water Temperatures

Place Temperature

Stations

Nearby Weather Stations

Station Location Temp. Windchill Dew Point Humidity Wind Precip. Elev Updated Type